sensor_id;sensor_type;location;lat;lon;timestamp;P1;durP1;ratioP1;P2;durP2;ratioP2
51495;SDS011;37572;52.094;4.870;2022-11-20T00:02:16;16.70;;;11.40;;
51495;SDS011;37572;52.094;4.870;2022-11-20T00:04:41;17.17;;;11.37;;
51495;SDS011;37572;52.094;4.870;2022-11-20T00:07:06;19.20;;;11.40;;
51495;SDS011;37572;52.094;4.870;2022-11-20T00:09:31;16.20;;;12.30;;
51495;SDS011;37572;52.094;4.870;2022-11-20T00:11:56;16.60;;;11.13;;
51495;SDS011;37572;52.094;4.870;2022-11-20T00:14:21;18.63;;;11.97;;
51495;SDS011;37572;52.094;4.870;2022-11-20T00:16:47;16.57;;;11.17;;
51495;SDS011;37572;52.094;4.870;2022-11-20T00:19:12;17.00;;;11.60;;
51495;SDS011;37572;52.094;4.870;2022-11-20T00:21:37;17.60;;;10.00;;
51495;SDS011;37572;52.094;4.870;2022-11-20T00:24:02;22.20;;;14.70;;
51495;SDS011;37572;52.094;4.870;2022-11-20T00:26:28;18.53;;;12.10;;
51495;SDS011;37572;52.094;4.870;2022-11-20T00:28:57;18.38;;;12.40;;
51495;SDS011;37572;52.094;4.870;2022-11-20T00:31:22;19.92;;;12.65;;
51495;SDS011;37572;52.094;4.870;2022-11-20T00:33:48;20.52;;;11.90;;
51495;SDS011;37572;52.094;4.870;2022-11-20T00:36:17;19.77;;;12.30;;
51495;SDS011;37572;52.094;4.870;2022-11-20T00:38:43;20.58;;;13.27;;
51495;SDS011;37572;52.094;4.870;2022-11-20T00:41:09;21.50;;;12.02;;
51495;SDS011;37572;52.094;4.870;2022-11-20T00:43:35;18.90;;;12.60;;
51495;SDS011;37572;52.094;4.870;2022-11-20T00:46:00;18.60;;;11.23;;
51495;SDS011;37572;52.094;4.870;2022-11-20T00:48:26;17.45;;;12.02;;
51495;SDS011;37572;52.094;4.870;2022-11-20T00:50:51;20.73;;;12.30;;
51495;SDS011;37572;52.094;4.870;2022-11-20T00:53:16;16.27;;;12.32;;
51495;SDS011;37572;52.094;4.870;2022-11-20T00:55:42;18.77;;;12.13;;
51495;SDS011;37572;52.094;4.870;2022-11-20T00:58:07;20.00;;;12.83;;
51495;SDS011;37572;52.094;4.870;2022-11-20T01:00:32;19.20;;;10.40;;
51495;SDS011;37572;52.094;4.870;2022-11-20T01:02:57;18.33;;;11.73;;
51495;SDS011;37572;52.094;4.870;2022-11-20T01:05:22;19.27;;;11.50;;
51495;SDS011;37572;52.094;4.870;2022-11-20T01:07:48;15.40;;;11.03;;
51495;SDS011;37572;52.094;4.870;2022-11-20T01:10:13;16.70;;;11.27;;
51495;SDS011;37572;52.094;4.870;2022-11-20T01:12:38;18.57;;;11.03;;
51495;SDS011;37572;52.094;4.870;2022-11-20T01:15:03;20.23;;;12.32;;
51495;SDS011;37572;52.094;4.870;2022-11-20T01:17:30;20.10;;;13.15;;
51495;SDS011;37572;52.094;4.870;2022-11-20T01:19:56;23.98;;;11.32;;
51495;SDS011;37572;52.094;4.870;2022-11-20T01:22:21;17.93;;;11.17;;
51495;SDS011;37572;52.094;4.870;2022-11-20T01:24:46;19.23;;;12.87;;
51495;SDS011;37572;52.094;4.870;2022-11-20T01:27:11;17.30;;;12.18;;
51495;SDS011;37572;52.094;4.870;2022-11-20T01:29:37;20.73;;;12.03;;
51495;SDS011;37572;52.094;4.870;2022-11-20T01:32:02;20.67;;;13.17;;
51495;SDS011;37572;52.094;4.870;2022-11-20T01:34:27;19.37;;;12.57;;
51495;SDS011;37572;52.094;4.870;2022-11-20T01:36:52;18.97;;;11.80;;
51495;SDS011;37572;52.094;4.870;2022-11-20T01:39:19;19.08;;;11.90;;
51495;SDS011;37572;52.094;4.870;2022-11-20T01:41:45;16.98;;;10.73;;
51495;SDS011;37572;52.094;4.870;2022-11-20T01:47:13;17.05;;;11.63;;
51495;SDS011;37572;52.094;4.870;2022-11-20T01:49:43;20.27;;;12.23;;
51495;SDS011;37572;52.094;4.870;2022-11-20T01:52:13;17.10;;;10.85;;
51495;SDS011;37572;52.094;4.870;2022-11-20T01:54:50;16.67;;;11.57;;
51495;SDS011;37572;52.094;4.870;2022-11-20T01:57:17;19.02;;;11.20;;
51495;SDS011;37572;52.094;4.870;2022-11-20T01:59:48;18.67;;;12.35;;
51495;SDS011;37572;52.094;4.870;2022-11-20T02:02:16;18.20;;;11.90;;
51495;SDS011;37572;52.094;4.870;2022-11-20T02:04:42;19.67;;;11.83;;
51495;SDS011;37572;52.094;4.870;2022-11-20T02:07:07;21.83;;;12.33;;
51495;SDS011;37572;52.094;4.870;2022-11-20T02:09:32;21.52;;;13.18;;
51495;SDS011;37572;52.094;4.870;2022-11-20T02:11:58;18.30;;;11.70;;
51495;SDS011;37572;52.094;4.870;2022-11-20T02:14:23;17.85;;;13.05;;
51495;SDS011;37572;52.094;4.870;2022-11-20T02:16:49;18.88;;;12.10;;
51495;SDS011;37572;52.094;4.870;2022-11-20T02:21:45;18.75;;;11.80;;
51495;SDS011;37572;52.094;4.870;2022-11-20T02:26:38;19.15;;;12.57;;
51495;SDS011;37572;52.094;4.870;2022-11-20T02:29:04;19.35;;;12.48;;
51495;SDS011;37572;52.094;4.870;2022-11-20T02:31:33;20.07;;;12.47;;
51495;SDS011;37572;52.094;4.870;2022-11-20T02:33:59;20.35;;;12.43;;
51495;SDS011;37572;52.094;4.870;2022-11-20T02:36:26;22.27;;;12.63;;
51495;SDS011;37572;52.094;4.870;2022-11-20T02:38:52;25.13;;;15.63;;
51495;SDS011;37572;52.094;4.870;2022-11-20T02:41:17;23.60;;;13.73;;
51495;SDS011;37572;52.094;4.870;2022-11-20T02:43:42;22.63;;;13.70;;
51495;SDS011;37572;52.094;4.870;2022-11-20T02:46:07;23.90;;;15.53;;
51495;SDS011;37572;52.094;4.870;2022-11-20T02:48:33;22.30;;;14.53;;
51495;SDS011;37572;52.094;4.870;2022-11-20T02:50:58;20.27;;;12.33;;
51495;SDS011;37572;52.094;4.870;2022-11-20T02:53:23;22.13;;;14.33;;
51495;SDS011;37572;52.094;4.870;2022-11-20T02:55:48;22.50;;;14.00;;
51495;SDS011;37572;52.094;4.870;2022-11-20T02:58:13;19.07;;;12.27;;
51495;SDS011;37572;52.094;4.870;2022-11-20T03:00:39;21.67;;;13.73;;
51495;SDS011;37572;52.094;4.870;2022-11-20T03:03:04;20.77;;;13.43;;
51495;SDS011;37572;52.094;4.870;2022-11-20T03:05:29;21.53;;;14.70;;
51495;SDS011;37572;52.094;4.870;2022-11-20T03:07:54;25.87;;;14.13;;
51495;SDS011;37572;52.094;4.870;2022-11-20T03:10:19;21.57;;;13.30;;
51495;SDS011;37572;52.094;4.870;2022-11-20T03:12:44;22.53;;;13.57;;
51495;SDS011;37572;52.094;4.870;2022-11-20T03:15:10;20.05;;;12.25;;
51495;SDS011;37572;52.094;4.870;2022-11-20T03:17:35;21.80;;;14.80;;
51495;SDS011;37572;52.094;4.870;2022-11-20T03:20:00;21.17;;;13.13;;
51495;SDS011;37572;52.094;4.870;2022-11-20T03:22:28;20.40;;;13.90;;
51495;SDS011;37572;52.094;4.870;2022-11-20T03:24:53;24.45;;;12.27;;
51495;SDS011;37572;52.094;4.870;2022-11-20T03:27:18;21.60;;;14.50;;
51495;SDS011;37572;52.094;4.870;2022-11-20T03:29:43;23.80;;;15.07;;
51495;SDS011;37572;52.094;4.870;2022-11-20T03:32:08;23.17;;;14.03;;
51495;SDS011;37572;52.094;4.870;2022-11-20T03:34:34;24.13;;;14.88;;
51495;SDS011;37572;52.094;4.870;2022-11-20T03:36:59;23.90;;;14.53;;
51495;SDS011;37572;52.094;4.870;2022-11-20T03:39:24;23.17;;;15.03;;
51495;SDS011;37572;52.094;4.870;2022-11-20T03:41:49;23.20;;;13.00;;
51495;SDS011;37572;52.094;4.870;2022-11-20T03:44:14;21.27;;;13.63;;
51495;SDS011;37572;52.094;4.870;2022-11-20T03:46:40;20.43;;;12.87;;
51495;SDS011;37572;52.094;4.870;2022-11-20T03:49:05;20.10;;;12.43;;
51495;SDS011;37572;52.094;4.870;2022-11-20T03:51:31;23.33;;;15.75;;
51495;SDS011;37572;52.094;4.870;2022-11-20T03:53:58;23.77;;;14.02;;
51495;SDS011;37572;52.094;4.870;2022-11-20T03:58:48;17.98;;;14.23;;
51495;SDS011;37572;52.094;4.870;2022-11-20T04:01:16;20.70;;;12.88;;
51495;SDS011;37572;52.094;4.870;2022-11-20T04:03:41;17.17;;;11.32;;
51495;SDS011;37572;52.094;4.870;2022-11-20T04:06:14;17.88;;;11.57;;
51495;SDS011;37572;52.094;4.870;2022-11-20T04:08:40;18.65;;;13.00;;
51495;SDS011;37572;52.094;4.870;2022-11-20T04:13:33;18.52;;;12.55;;
51495;SDS011;37572;52.094;4.870;2022-11-20T04:15:59;18.10;;;14.47;;
51495;SDS011;37572;52.094;4.870;2022-11-20T04:18:24;20.63;;;10.17;;
51495;SDS011;37572;52.094;4.870;2022-11-20T04:20:49;18.50;;;12.43;;
51495;SDS011;37572;52.094;4.870;2022-11-20T04:23:14;23.83;;;13.57;;
51495;SDS011;37572;52.094;4.870;2022-11-20T04:25:39;20.03;;;13.10;;
51495;SDS011;37572;52.094;4.870;2022-11-20T04:28:04;21.07;;;12.73;;
51495;SDS011;37572;52.094;4.870;2022-11-20T04:30:30;16.53;;;10.93;;
51495;SDS011;37572;52.094;4.870;2022-11-20T04:32:55;15.52;;;11.23;;
51495;SDS011;37572;52.094;4.870;2022-11-20T04:35:20;16.63;;;12.00;;
51495;SDS011;37572;52.094;4.870;2022-11-20T04:37:46;19.67;;;13.90;;
51495;SDS011;37572;52.094;4.870;2022-11-20T04:40:11;26.60;;;14.37;;
51495;SDS011;37572;52.094;4.870;2022-11-20T04:42:36;26.35;;;13.40;;
51495;SDS011;37572;52.094;4.870;2022-11-20T04:45:01;25.20;;;14.17;;
51495;SDS011;37572;52.094;4.870;2022-11-20T04:47:27;23.73;;;11.77;;
51495;SDS011;37572;52.094;4.870;2022-11-20T04:49:52;26.70;;;15.93;;
51495;SDS011;37572;52.094;4.870;2022-11-20T04:52:17;28.07;;;12.87;;
51495;SDS011;37572;52.094;4.870;2022-11-20T04:54:42;24.53;;;15.00;;
51495;SDS011;37572;52.094;4.870;2022-11-20T04:57:07;21.73;;;14.53;;
51495;SDS011;37572;52.094;4.870;2022-11-20T04:59:33;23.87;;;13.57;;
51495;SDS011;37572;52.094;4.870;2022-11-20T05:01:58;24.27;;;13.07;;
51495;SDS011;37572;52.094;4.870;2022-11-20T05:04:23;26.73;;;14.73;;
51495;SDS011;37572;52.094;4.870;2022-11-20T05:06:49;25.47;;;15.40;;
51495;SDS011;37572;52.094;4.870;2022-11-20T05:09:14;33.15;;;16.67;;
51495;SDS011;37572;52.094;4.870;2022-11-20T05:11:39;25.90;;;15.07;;
51495;SDS011;37572;52.094;4.870;2022-11-20T05:14:05;27.23;;;16.33;;
51495;SDS011;37572;52.094;4.870;2022-11-20T05:16:30;23.27;;;15.17;;
51495;SDS011;37572;52.094;4.870;2022-11-20T05:18:55;23.60;;;14.43;;
51495;SDS011;37572;52.094;4.870;2022-11-20T05:21:21;24.52;;;15.02;;
51495;SDS011;37572;52.094;4.870;2022-11-20T05:23:46;22.27;;;13.57;;
51495;SDS011;37572;52.094;4.870;2022-11-20T05:26:13;25.88;;;14.90;;
51495;SDS011;37572;52.094;4.870;2022-11-20T05:28:38;21.25;;;12.82;;
51495;SDS011;37572;52.094;4.870;2022-11-20T05:31:04;20.93;;;13.13;;
51495;SDS011;37572;52.094;4.870;2022-11-20T05:33:30;22.00;;;14.75;;
51495;SDS011;37572;52.094;4.870;2022-11-20T05:35:57;20.63;;;12.57;;
51495;SDS011;37572;52.094;4.870;2022-11-20T05:38:23;22.08;;;14.13;;
51495;SDS011;37572;52.094;4.870;2022-11-20T05:40:48;22.90;;;14.87;;
51495;SDS011;37572;52.094;4.870;2022-11-20T05:43:13;23.60;;;14.67;;
51495;SDS011;37572;52.094;4.870;2022-11-20T05:45:38;21.67;;;14.37;;
51495;SDS011;37572;52.094;4.870;2022-11-20T05:48:03;21.70;;;13.47;;
51495;SDS011;37572;52.094;4.870;2022-11-20T05:50:29;24.03;;;14.53;;
51495;SDS011;37572;52.094;4.870;2022-11-20T05:52:54;22.07;;;14.00;;
51495;SDS011;37572;52.094;4.870;2022-11-20T05:55:19;22.98;;;15.07;;
51495;SDS011;37572;52.094;4.870;2022-11-20T05:57:44;21.67;;;13.90;;
51495;SDS011;37572;52.094;4.870;2022-11-20T06:00:10;22.93;;;14.33;;
51495;SDS011;37572;52.094;4.870;2022-11-20T06:02:35;19.30;;;14.10;;
51495;SDS011;37572;52.094;4.870;2022-11-20T06:05:01;22.58;;;13.30;;
51495;SDS011;37572;52.094;4.870;2022-11-20T06:07:26;18.07;;;13.90;;
51495;SDS011;37572;52.094;4.870;2022-11-20T06:09:51;20.80;;;13.07;;
51495;SDS011;37572;52.094;4.870;2022-11-20T06:12:16;23.23;;;14.67;;
51495;SDS011;37572;52.094;4.870;2022-11-20T06:14:41;20.70;;;14.40;;
51495;SDS011;37572;52.094;4.870;2022-11-20T06:17:06;23.13;;;14.73;;
51495;SDS011;37572;52.094;4.870;2022-11-20T06:19:31;21.70;;;13.50;;
51495;SDS011;37572;52.094;4.870;2022-11-20T06:21:57;20.10;;;13.63;;
51495;SDS011;37572;52.094;4.870;2022-11-20T06:24:22;22.30;;;15.70;;
51495;SDS011;37572;52.094;4.870;2022-11-20T06:26:47;20.77;;;13.45;;
51495;SDS011;37572;52.094;4.870;2022-11-20T06:29:13;22.57;;;15.00;;
51495;SDS011;37572;52.094;4.870;2022-11-20T06:31:38;21.40;;;13.07;;
51495;SDS011;37572;52.094;4.870;2022-11-20T06:34:06;21.57;;;14.83;;
51495;SDS011;37572;52.094;4.870;2022-11-20T06:36:32;23.77;;;14.23;;
51495;SDS011;37572;52.094;4.870;2022-11-20T06:38:57;25.58;;;15.20;;
51495;SDS011;37572;52.094;4.870;2022-11-20T06:41:22;24.00;;;15.47;;
51495;SDS011;37572;52.094;4.870;2022-11-20T06:43:47;23.03;;;14.40;;
51495;SDS011;37572;52.094;4.870;2022-11-20T06:46:13;24.50;;;14.57;;
51495;SDS011;37572;52.094;4.870;2022-11-20T06:48:38;26.08;;;15.55;;
51495;SDS011;37572;52.094;4.870;2022-11-20T06:51:04;23.60;;;15.60;;
51495;SDS011;37572;52.094;4.870;2022-11-20T06:53:30;24.98;;;17.63;;
51495;SDS011;37572;52.094;4.870;2022-11-20T06:55:55;28.67;;;13.43;;
51495;SDS011;37572;52.094;4.870;2022-11-20T06:58:21;25.63;;;14.05;;
51495;SDS011;37572;52.094;4.870;2022-11-20T07:00:46;24.23;;;15.60;;
51495;SDS011;37572;52.094;4.870;2022-11-20T07:03:11;26.07;;;16.17;;
51495;SDS011;37572;52.094;4.870;2022-11-20T07:05:37;25.33;;;15.10;;
51495;SDS011;37572;52.094;4.870;2022-11-20T07:08:03;26.02;;;15.10;;
51495;SDS011;37572;52.094;4.870;2022-11-20T07:10:29;26.70;;;14.77;;
51495;SDS011;37572;52.094;4.870;2022-11-20T07:12:54;26.80;;;14.57;;
51495;SDS011;37572;52.094;4.870;2022-11-20T07:15:20;28.10;;;15.67;;
51495;SDS011;37572;52.094;4.870;2022-11-20T07:17:46;22.80;;;13.77;;
51495;SDS011;37572;52.094;4.870;2022-11-20T07:20:13;23.17;;;14.63;;
51495;SDS011;37572;52.094;4.870;2022-11-20T07:22:38;24.10;;;14.45;;
51495;SDS011;37572;52.094;4.870;2022-11-20T07:25:04;27.70;;;15.82;;
51495;SDS011;37572;52.094;4.870;2022-11-20T07:27:29;26.45;;;15.52;;
51495;SDS011;37572;52.094;4.870;2022-11-20T07:29:54;22.80;;;12.27;;
51495;SDS011;37572;52.094;4.870;2022-11-20T07:32:20;26.13;;;14.88;;
51495;SDS011;37572;52.094;4.870;2022-11-20T07:34:45;22.60;;;14.37;;
51495;SDS011;37572;52.094;4.870;2022-11-20T07:37:11;25.63;;;15.07;;
51495;SDS011;37572;52.094;4.870;2022-11-20T07:39:36;22.00;;;15.10;;
51495;SDS011;37572;52.094;4.870;2022-11-20T07:42:01;26.50;;;14.80;;
51495;SDS011;37572;52.094;4.870;2022-11-20T07:44:26;22.00;;;13.67;;
51495;SDS011;37572;52.094;4.870;2022-11-20T07:46:52;25.03;;;15.43;;
51495;SDS011;37572;52.094;4.870;2022-11-20T07:49:17;23.07;;;15.60;;
51495;SDS011;37572;52.094;4.870;2022-11-20T07:51:42;24.77;;;16.00;;
51495;SDS011;37572;52.094;4.870;2022-11-20T07:54:07;26.80;;;16.03;;
51495;SDS011;37572;52.094;4.870;2022-11-20T07:56:32;24.07;;;15.83;;
51495;SDS011;37572;52.094;4.870;2022-11-20T07:58:57;26.17;;;14.67;;
51495;SDS011;37572;52.094;4.870;2022-11-20T08:01:23;23.13;;;15.57;;
51495;SDS011;37572;52.094;4.870;2022-11-20T08:03:48;26.10;;;17.07;;
51495;SDS011;37572;52.094;4.870;2022-11-20T08:06:13;24.80;;;15.77;;
51495;SDS011;37572;52.094;4.870;2022-11-20T08:08:39;25.63;;;15.43;;
51495;SDS011;37572;52.094;4.870;2022-11-20T08:11:05;22.70;;;15.07;;
51495;SDS011;37572;52.094;4.870;2022-11-20T08:13:49;28.02;;;16.20;;
51495;SDS011;37572;52.094;4.870;2022-11-20T08:16:33;28.60;;;17.00;;
51495;SDS011;37572;52.094;4.870;2022-11-20T08:18:58;27.30;;;17.00;;
51495;SDS011;37572;52.094;4.870;2022-11-20T08:21:23;28.73;;;16.67;;
51495;SDS011;37572;52.094;4.870;2022-11-20T08:23:49;28.17;;;15.07;;
51495;SDS011;37572;52.094;4.870;2022-11-20T08:26:14;31.93;;;17.87;;
51495;SDS011;37572;52.094;4.870;2022-11-20T08:33:29;26.30;;;15.60;;
51495;SDS011;37572;52.094;4.870;2022-11-20T08:35:59;28.38;;;16.52;;
51495;SDS011;37572;52.094;4.870;2022-11-20T08:38:24;25.50;;;15.57;;
51495;SDS011;37572;52.094;4.870;2022-11-20T08:40:49;27.63;;;16.17;;
51495;SDS011;37572;52.094;4.870;2022-11-20T08:43:34;32.55;;;19.00;;
51495;SDS011;37572;52.094;4.870;2022-11-20T08:45:59;29.00;;;17.03;;
51495;SDS011;37572;52.094;4.870;2022-11-20T08:48:24;25.87;;;14.17;;
51495;SDS011;37572;52.094;4.870;2022-11-20T08:50:50;27.50;;;14.47;;
51495;SDS011;37572;52.094;4.870;2022-11-20T08:53:15;31.47;;;18.57;;
51495;SDS011;37572;52.094;4.870;2022-11-20T08:55:40;32.33;;;17.87;;
51495;SDS011;37572;52.094;4.870;2022-11-20T08:58:05;30.50;;;20.17;;
51495;SDS011;37572;52.094;4.870;2022-11-20T09:00:31;29.60;;;17.15;;
51495;SDS011;37572;52.094;4.870;2022-11-20T09:02:57;30.10;;;19.95;;
51495;SDS011;37572;52.094;4.870;2022-11-20T09:05:23;29.00;;;18.58;;
51495;SDS011;37572;52.094;4.870;2022-11-20T09:07:48;26.77;;;17.23;;
51495;SDS011;37572;52.094;4.870;2022-11-20T09:10:13;31.03;;;18.77;;
51495;SDS011;37572;52.094;4.870;2022-11-20T09:12:39;28.43;;;17.03;;
51495;SDS011;37572;52.094;4.870;2022-11-20T09:15:04;28.10;;;17.67;;
51495;SDS011;37572;52.094;4.870;2022-11-20T09:19:54;29.20;;;18.38;;
51495;SDS011;37572;52.094;4.870;2022-11-20T09:24:44;26.23;;;16.83;;
51495;SDS011;37572;52.094;4.870;2022-11-20T09:32:00;26.63;;;17.70;;
51495;SDS011;37572;52.094;4.870;2022-11-20T09:34:25;25.50;;;15.30;;
51495;SDS011;37572;52.094;4.870;2022-11-20T09:36:50;24.13;;;14.87;;
51495;SDS011;37572;52.094;4.870;2022-11-20T09:39:16;26.77;;;15.33;;
51495;SDS011;37572;52.094;4.870;2022-11-20T09:46:44;29.27;;;17.77;;
51495;SDS011;37572;52.094;4.870;2022-11-20T09:49:50;31.33;;;16.33;;
51495;SDS011;37572;52.094;4.870;2022-11-20T09:54:45;29.88;;;19.08;;
51495;SDS011;37572;52.094;4.870;2022-11-20T09:57:11;30.17;;;17.20;;
51495;SDS011;37572;52.094;4.870;2022-11-20T09:59:40;28.63;;;16.75;;
51495;SDS011;37572;52.094;4.870;2022-11-20T10:02:17;31.05;;;19.90;;
51495;SDS011;37572;52.094;4.870;2022-11-20T10:04:45;34.10;;;19.65;;
51495;SDS011;37572;52.094;4.870;2022-11-20T10:07:13;28.20;;;18.10;;
51495;SDS011;37572;52.094;4.870;2022-11-20T10:09:42;30.63;;;19.10;;
51495;SDS011;37572;52.094;4.870;2022-11-20T10:20:14;29.83;;;18.63;;
51495;SDS011;37572;52.094;4.870;2022-11-20T10:27:37;30.60;;;18.65;;
51495;SDS011;37572;52.094;4.870;2022-11-20T10:32:40;32.65;;;19.23;;
51495;SDS011;37572;52.094;4.870;2022-11-20T10:37:41;30.60;;;17.33;;
51495;SDS011;37572;52.094;4.870;2022-11-20T10:45:00;28.83;;;16.88;;
51495;SDS011;37572;52.094;4.870;2022-11-20T10:47:27;29.27;;;18.45;;
51495;SDS011;37572;52.094;4.870;2022-11-20T10:49:55;29.15;;;17.65;;
51495;SDS011;37572;52.094;4.870;2022-11-20T10:57:52;36.17;;;20.77;;
51495;SDS011;37572;52.094;4.870;2022-11-20T11:00:20;35.05;;;20.92;;
51495;SDS011;37572;52.094;4.870;2022-11-20T11:05:56;28.58;;;16.60;;
51495;SDS011;37572;52.094;4.870;2022-11-20T11:07:56;27.88;;;14.98;;
51495;SDS011;37572;52.094;4.870;2022-11-20T11:15:25;36.72;;;18.58;;
51495;SDS011;37572;52.094;4.870;2022-11-20T11:17:51;34.30;;;17.67;;
51495;SDS011;37572;52.094;4.870;2022-11-20T11:25:26;39.83;;;21.92;;
51495;SDS011;37572;52.094;4.870;2022-11-20T11:27:53;37.38;;;20.73;;
51495;SDS011;37572;52.094;4.870;2022-11-20T11:30:20;37.42;;;19.83;;
51495;SDS011;37572;52.094;4.870;2022-11-20T11:37:45;41.28;;;21.83;;
51495;SDS011;37572;52.094;4.870;2022-11-20T11:40:12;44.90;;;21.52;;
51495;SDS011;37572;52.094;4.870;2022-11-20T11:45:02;46.92;;;23.15;;
51495;SDS011;37572;52.094;4.870;2022-11-20T11:52:21;47.80;;;24.55;;
51495;SDS011;37572;52.094;4.870;2022-11-20T11:55:00;50.13;;;25.00;;
51495;SDS011;37572;52.094;4.870;2022-11-20T11:57:32;45.50;;;24.15;;
51495;SDS011;37572;52.094;4.870;2022-11-20T12:04:54;49.17;;;24.67;;
51495;SDS011;37572;52.094;4.870;2022-11-20T12:07:41;45.83;;;20.33;;
51495;SDS011;37572;52.094;4.870;2022-11-20T12:10:12;45.53;;;23.73;;
51495;SDS011;37572;52.094;4.870;2022-11-20T12:12:40;48.92;;;24.38;;
51495;SDS011;37572;52.094;4.870;2022-11-20T12:15:11;51.63;;;23.30;;
51495;SDS011;37572;52.094;4.870;2022-11-20T12:17:37;44.38;;;22.63;;
51495;SDS011;37572;52.094;4.870;2022-11-20T12:25:09;47.33;;;22.88;;
51495;SDS011;37572;52.094;4.870;2022-11-20T12:30:09;47.90;;;25.00;;
51495;SDS011;37572;52.094;4.870;2022-11-20T12:37:48;44.17;;;21.98;;
51495;SDS011;37572;52.094;4.870;2022-11-20T12:40:21;43.40;;;24.63;;
51495;SDS011;37572;52.094;4.870;2022-11-20T12:43:04;46.55;;;21.63;;
51495;SDS011;37572;52.094;4.870;2022-11-20T13:05:52;45.00;;;22.90;;
51495;SDS011;37572;52.094;4.870;2022-11-20T13:08:24;45.40;;;22.05;;
51495;SDS011;37572;52.094;4.870;2022-11-20T13:11:13;46.35;;;22.60;;
51495;SDS011;37572;52.094;4.870;2022-11-20T13:13:40;49.03;;;22.55;;
51495;SDS011;37572;52.094;4.870;2022-11-20T13:16:09;50.58;;;23.08;;
51495;SDS011;37572;52.094;4.870;2022-11-20T13:18:40;51.67;;;22.23;;
51495;SDS011;37572;52.094;4.870;2022-11-20T13:21:17;46.53;;;20.20;;
51495;SDS011;37572;52.094;4.870;2022-11-20T13:23:43;53.08;;;24.20;;
51495;SDS011;37572;52.094;4.870;2022-11-20T13:28:40;52.55;;;24.65;;
51495;SDS011;37572;52.094;4.870;2022-11-20T13:31:09;55.05;;;25.70;;
51495;SDS011;37572;52.094;4.870;2022-11-20T13:33:49;56.00;;;24.65;;
51495;SDS011;37572;52.094;4.870;2022-11-20T13:36:21;69.05;;;28.02;;
51495;SDS011;37572;52.094;4.870;2022-11-20T13:38:47;62.53;;;26.73;;
51495;SDS011;37572;52.094;4.870;2022-11-20T13:41:23;56.53;;;24.10;;
51495;SDS011;37572;52.094;4.870;2022-11-20T13:43:58;61.72;;;28.92;;
51495;SDS011;37572;52.094;4.870;2022-11-20T13:46:34;67.03;;;27.45;;
51495;SDS011;37572;52.094;4.870;2022-11-20T13:48:59;60.50;;;26.23;;
51495;SDS011;37572;52.094;4.870;2022-11-20T13:54:05;69.45;;;31.13;;
51495;SDS011;37572;52.094;4.870;2022-11-20T13:59:06;67.03;;;27.40;;
51495;SDS011;37572;52.094;4.870;2022-11-20T14:01:34;74.50;;;30.77;;
51495;SDS011;37572;52.094;4.870;2022-11-20T14:06:29;75.45;;;32.03;;
51495;SDS011;37572;52.094;4.870;2022-11-20T14:08:58;68.57;;;29.63;;
51495;SDS011;37572;52.094;4.870;2022-11-20T14:11:24;70.30;;;30.45;;
51495;SDS011;37572;52.094;4.870;2022-11-20T14:13:51;68.22;;;28.75;;
51495;SDS011;37572;52.094;4.870;2022-11-20T14:16:19;77.10;;;32.97;;
51495;SDS011;37572;52.094;4.870;2022-11-20T14:18:44;79.90;;;35.55;;
51495;SDS011;37572;52.094;4.870;2022-11-20T14:21:09;72.23;;;31.20;;
51495;SDS011;37572;52.094;4.870;2022-11-20T14:23:35;80.23;;;38.57;;
51495;SDS011;37572;52.094;4.870;2022-11-20T14:26:00;78.87;;;34.40;;
51495;SDS011;37572;52.094;4.870;2022-11-20T14:28:29;74.30;;;35.00;;
51495;SDS011;37572;52.094;4.870;2022-11-20T14:30:55;67.82;;;33.28;;
51495;SDS011;37572;52.094;4.870;2022-11-20T14:33:21;73.97;;;34.80;;
51495;SDS011;37572;52.094;4.870;2022-11-20T14:35:50;73.13;;;36.75;;
51495;SDS011;37572;52.094;4.870;2022-11-20T14:38:21;72.07;;;35.22;;
51495;SDS011;37572;52.094;4.870;2022-11-20T14:40:47;74.68;;;33.42;;
51495;SDS011;37572;52.094;4.870;2022-11-20T14:43:23;79.07;;;34.40;;
51495;SDS011;37572;52.094;4.870;2022-11-20T14:45:52;72.45;;;30.77;;
51495;SDS011;37572;52.094;4.870;2022-11-20T14:48:17;75.53;;;36.58;;
51495;SDS011;37572;52.094;4.870;2022-11-20T14:53:08;70.07;;;31.53;;
51495;SDS011;37572;52.094;4.870;2022-11-20T14:58:00;67.43;;;28.00;;
51495;SDS011;37572;52.094;4.870;2022-11-20T15:00:26;71.53;;;31.02;;
51495;SDS011;37572;52.094;4.870;2022-11-20T15:02:51;76.25;;;31.88;;
51495;SDS011;37572;52.094;4.870;2022-11-20T15:05:18;77.47;;;31.95;;
51495;SDS011;37572;52.094;4.870;2022-11-20T15:07:45;78.90;;;33.25;;
51495;SDS011;37572;52.094;4.870;2022-11-20T15:13:00;74.65;;;32.13;;
51495;SDS011;37572;52.094;4.870;2022-11-20T15:17:50;68.80;;;30.83;;
51495;SDS011;37572;52.094;4.870;2022-11-20T15:20:15;78.37;;;33.07;;
51495;SDS011;37572;52.094;4.870;2022-11-20T15:22:41;83.47;;;36.42;;
51495;SDS011;37572;52.094;4.870;2022-11-20T15:25:16;80.35;;;32.97;;
51495;SDS011;37572;52.094;4.870;2022-11-20T15:27:42;75.90;;;30.90;;
51495;SDS011;37572;52.094;4.870;2022-11-20T15:32:39;89.07;;;35.63;;
51495;SDS011;37572;52.094;4.870;2022-11-20T15:35:05;75.70;;;34.17;;
51495;SDS011;37572;52.094;4.870;2022-11-20T15:37:30;82.55;;;33.03;;
51495;SDS011;37572;52.094;4.870;2022-11-20T15:39:55;78.57;;;31.87;;
51495;SDS011;37572;52.094;4.870;2022-11-20T15:42:20;71.53;;;31.73;;
51495;SDS011;37572;52.094;4.870;2022-11-20T15:44:45;74.93;;;31.57;;
51495;SDS011;37572;52.094;4.870;2022-11-20T15:47:11;65.77;;;28.23;;
51495;SDS011;37572;52.094;4.870;2022-11-20T15:49:36;76.87;;;32.23;;
51495;SDS011;37572;52.094;4.870;2022-11-20T15:52:01;68.25;;;28.38;;
51495;SDS011;37572;52.094;4.870;2022-11-20T15:54:26;60.43;;;25.33;;
51495;SDS011;37572;52.094;4.870;2022-11-20T15:56:52;75.40;;;31.73;;
51495;SDS011;37572;52.094;4.870;2022-11-20T15:59:17;57.45;;;24.75;;
51495;SDS011;37572;52.094;4.870;2022-11-20T16:01:42;64.47;;;28.33;;
51495;SDS011;37572;52.094;4.870;2022-11-20T16:04:11;64.97;;;28.47;;
51495;SDS011;37572;52.094;4.870;2022-11-20T16:06:37;63.13;;;27.75;;
51495;SDS011;37572;52.094;4.870;2022-11-20T16:09:02;68.73;;;28.23;;
51495;SDS011;37572;52.094;4.870;2022-11-20T16:11:27;67.27;;;29.00;;
51495;SDS011;37572;52.094;4.870;2022-11-20T16:13:52;63.20;;;26.40;;
51495;SDS011;37572;52.094;4.870;2022-11-20T16:16:36;45.45;;;20.15;;
51495;SDS011;37572;52.094;4.870;2022-11-20T16:19:02;53.03;;;22.20;;
51495;SDS011;37572;52.094;4.870;2022-11-20T16:21:27;55.27;;;26.03;;
51495;SDS011;37572;52.094;4.870;2022-11-20T16:23:57;48.15;;;21.83;;
51495;SDS011;37572;52.094;4.870;2022-11-20T16:26:22;52.88;;;22.23;;
51495;SDS011;37572;52.094;4.870;2022-11-20T16:28:47;52.77;;;23.27;;
51495;SDS011;37572;52.094;4.870;2022-11-20T16:31:13;54.03;;;23.93;;
51495;SDS011;37572;52.094;4.870;2022-11-20T16:33:39;53.65;;;23.08;;
51495;SDS011;37572;52.094;4.870;2022-11-20T16:36:11;51.17;;;22.98;;
51495;SDS011;37572;52.094;4.870;2022-11-20T16:38:37;48.22;;;22.15;;
51495;SDS011;37572;52.094;4.870;2022-11-20T16:41:03;49.90;;;21.48;;
51495;SDS011;37572;52.094;4.870;2022-11-20T16:43:28;51.42;;;22.70;;
51495;SDS011;37572;52.094;4.870;2022-11-20T16:45:53;48.60;;;23.40;;
51495;SDS011;37572;52.094;4.870;2022-11-20T16:48:19;41.63;;;21.60;;